Time;durP1;ratioP1;P1;durP2;ratioP2;P2;SDS_P1;SDS_P2;PMS_P1;PMS_P2;Temp;Humidity;BMP_temperature;BMP_pressure;BME280_temperature;BME280_humidity;BME280_pressure;Samples;Min_cycle;Max_cycle;Signal;HPM_P1;HPM_P2
2023/07/31 00:00:33;;;;;;;14.23;8.30;;;19.20;99.90;;;;;;5136598;27;20059;-57
2023/07/31 00:02:59;;;;;;;14.00;8.52;;;19.20;99.90;;;;;;5136524;27;20030;-57
2023/07/31 00:05:25;;;;;;;15.50;8.73;;;19.20;99.90;;;;;;5135931;27;20039;-57
2023/07/31 00:07:51;;;;;;;15.77;9.55;;;19.20;99.90;;;;;;5136571;27;20107;-57
2023/07/31 00:10:17;;;;;;;16.17;10.00;;;19.20;99.90;;;;;;5136181;27;20031;-57
2023/07/31 00:12:45;;;;;;;16.63;10.32;;;19.20;99.90;;;;;;5136121;27;20023;-57
2023/07/31 00:15:11;;;;;;;13.52;9.63;;;19.20;99.90;;;;;;5135974;27;20019;-57
2023/07/31 00:17:37;;;;;;;14.80;9.73;;;19.20;99.90;;;;;;5136376;27;20036;-57
2023/07/31 00:20:03;;;;;;;12.55;9.13;;;19.20;99.90;;;;;;5135941;27;20027;-57
2023/07/31 00:22:29;;;;;;;19.25;9.93;;;19.10;99.90;;;;;;5121580;27;20031;-57
2023/07/31 00:24:56;;;;;;;14.82;8.88;;;19.00;99.90;;;;;;5097216;28;20106;-57
2023/07/31 00:27:22;;;;;;;20.20;10.45;;;19.00;99.90;;;;;;5115431;28;20461;-56
2023/07/31 00:29:50;;;;;;;19.27;10.60;;;18.90;99.90;;;;;;5097213;28;20034;-57
2023/07/31 00:32:15;;;;;;;18.77;10.70;;;18.90;99.90;;;;;;5115241;28;20408;-57
2023/07/31 00:34:41;;;;;;;17.73;9.63;;;18.80;99.90;;;;;;5115387;28;20024;-57
2023/07/31 00:37:07;;;;;;;15.13;9.88;;;18.80;99.90;;;;;;5115590;28;20032;-57
2023/07/31 00:39:37;;;;;;;15.32;9.82;;;18.80;99.90;;;;;;5096752;28;20042;-57
2023/07/31 00:42:03;;;;;;;19.48;11.65;;;18.80;99.90;;;;;;5115254;28;20062;-57
2023/07/31 00:44:29;;;;;;;17.90;12.35;;;18.70;99.90;;;;;;5096876;28;20080;-57
2023/07/31 00:46:56;;;;;;;23.48;13.65;;;18.70;99.90;;;;;;5115058;28;20023;-57
2023/07/31 00:49:23;;;;;;;21.23;14.13;;;18.80;99.90;;;;;;5097016;28;20016;-57
2023/07/31 00:51:49;;;;;;;24.67;15.05;;;18.80;99.90;;;;;;5114999;28;20103;-57
2023/07/31 00:54:15;;;;;;;19.65;14.52;;;18.70;99.90;;;;;;5114850;28;20059;-57
2023/07/31 00:56:44;;;;;;;22.00;14.35;;;18.70;99.90;;;;;;5115130;28;20472;-57
2023/07/31 00:59:10;;;;;;;21.58;13.88;;;18.70;99.90;;;;;;5115205;28;20033;-57
2023/07/31 01:01:35;;;;;;;19.00;12.88;;;18.70;99.90;;;;;;5114763;28;20110;-57
2023/07/31 01:04:03;;;;;;;16.73;12.63;;;18.70;99.90;;;;;;5114988;28;20051;-57
2023/07/31 01:06:52;;;;;;;18.30;13.95;;;18.70;99.90;;;;;;5114867;28;20028;-57
2023/07/31 01:09:45;;;;;;;16.77;11.95;;;18.60;99.90;;;;;;5114738;28;20380;-57
2023/07/31 01:12:16;;;;;;;20.80;12.65;;;18.60;99.90;;;;;;5114760;28;20023;-57
2023/07/31 01:14:52;;;;;;;17.88;11.98;;;18.60;99.90;;;;;;5114799;28;20027;-57
2023/07/31 01:17:18;;;;;;;19.63;11.73;;;18.60;99.90;;;;;;5114757;28;20050;-57
2023/07/31 01:19:44;;;;;;;15.38;11.48;;;18.60;99.90;;;;;;5114889;28;20453;-57
2023/07/31 01:22:36;;;;;;;25.15;11.77;;;18.60;99.90;;;;;;5107998;28;20465;-57
2023/07/31 01:25:39;;;;;;;17.80;10.90;;;18.60;99.90;;;;;;5095831;27;20071;-57
2023/07/31 01:28:10;;;;;;;20.55;11.85;;;18.50;99.90;;;;;;5139498;27;20038;-57
2023/07/31 01:30:43;;;;;;;17.50;11.13;;;18.50;99.90;;;;;;5139269;27;20051;-57
2023/07/31 01:33:10;;;;;;;17.85;11.15;;;18.40;99.90;;;;;;5120924;27;20042;-57
2023/07/31 01:35:37;;;;;;;15.55;10.38;;;18.40;99.90;;;;;;5139318;27;20318;-57
2023/07/31 01:38:04;;;;;;;16.33;10.20;;;18.30;99.90;;;;;;5120668;27;20452;-57
2023/07/31 01:40:30;;;;;;;18.00;10.98;;;18.40;99.90;;;;;;5120913;27;20027;-57
2023/07/31 01:42:56;;;;;;;21.48;11.18;;;18.40;99.90;;;;;;5139238;27;20482;-57
2023/07/31 01:45:21;;;;;;;21.33;11.85;;;18.40;99.90;;;;;;5138886;27;20027;-57
2023/07/31 01:47:47;;;;;;;18.13;11.32;;;18.30;99.90;;;;;;5139266;27;20015;-57
2023/07/31 01:50:13;;;;;;;15.75;10.75;;;18.20;99.90;;;;;;5139000;27;20045;-57
2023/07/31 01:52:39;;;;;;;15.68;11.07;;;18.30;99.90;;;;;;5138976;27;20027;-57
2023/07/31 01:55:05;;;;;;;20.00;12.05;;;18.30;99.90;;;;;;5138947;27;20042;-57
2023/07/31 01:57:31;;;;;;;18.65;10.85;;;18.20;99.90;;;;;;5138762;27;20039;-57
2023/07/31 01:59:57;;;;;;;15.52;9.90;;;18.10;99.90;;;;;;5138715;27;20357;-57
2023/07/31 02:02:23;;;;;;;17.92;10.63;;;18.10;99.90;;;;;;5120456;27;20091;-57
2023/07/31 02:04:49;;;;;;;17.42;10.40;;;18.10;99.90;;;;;;5138449;27;20138;-57
2023/07/31 02:07:15;;;;;;;20.10;11.43;;;18.10;99.90;;;;;;5138746;27;20078;-57
2023/07/31 02:09:41;;;;;;;14.73;10.20;;;18.00;99.90;;;;;;5120304;27;20031;-57
2023/07/31 02:12:08;;;;;;;17.27;10.82;;;18.00;99.90;;;;;;5120063;27;20023;-57
2023/07/31 02:14:34;;;;;;;17.98;10.65;;;18.00;99.90;;;;;;5138601;27;20054;-57
2023/07/31 02:17:01;;;;;;;17.60;10.25;;;17.90;99.90;;;;;;5138625;27;20034;-57
2023/07/31 02:19:27;;;;;;;19.45;9.90;;;18.00;99.90;;;;;;5119843;27;20027;-57
2023/07/31 02:21:53;;;;;;;13.18;9.90;;;18.00;99.90;;;;;;5110793;28;20548;-57
2023/07/31 02:24:18;;;;;;;13.50;9.63;;;17.90;99.90;;;;;;5118171;28;20059;-57
2023/07/31 02:26:44;;;;;;;19.50;11.45;;;17.90;99.90;;;;;;5117800;28;20027;-57
2023/07/31 02:29:10;;;;;;;18.55;11.90;;;17.90;99.90;;;;;;5099502;28;20051;-57
2023/07/31 02:31:36;;;;;;;22.40;13.07;;;17.90;99.90;;;;;;5099439;28;20024;-57
2023/07/31 02:34:02;;;;;;;21.38;13.95;;;17.80;99.90;;;;;;5117374;28;20384;-57
2023/07/31 02:36:28;;;;;;;21.98;14.70;;;17.80;99.90;;;;;;5117179;28;20027;-57
2023/07/31 02:38:55;;;;;;;21.63;13.40;;;17.90;99.90;;;;;;5117785;28;20061;-57
2023/07/31 02:41:21;;;;;;;22.13;13.70;;;17.80;99.90;;;;;;5117469;28;20031;-57
2023/07/31 02:43:47;;;;;;;28.92;16.92;;;17.90;99.90;;;;;;5117208;28;20024;-57
2023/07/31 02:46:12;;;;;;;33.80;17.13;;;17.90;99.90;;;;;;5117500;28;20023;-57
2023/07/31 02:48:38;;;;;;;26.92;16.48;;;17.90;99.90;;;;;;5117158;28;20024;-57
2023/07/31 02:51:04;;;;;;;27.38;15.50;;;17.90;99.90;;;;;;5117730;28;20148;-57
2023/07/31 02:53:30;;;;;;;19.92;13.52;;;17.80;99.90;;;;;;5117317;28;20043;-56
2023/07/31 02:55:56;;;;;;;22.35;13.00;;;17.90;99.90;;;;;;5117031;28;20106;-57
2023/07/31 02:58:22;;;;;;;20.33;12.82;;;17.80;99.90;;;;;;5117185;28;20038;-57
2023/07/31 03:00:48;;;;;;;22.77;12.82;;;17.80;99.90;;;;;;5098855;28;20028;-57
2023/07/31 03:03:14;;;;;;;17.10;10.00;;;17.80;99.90;;;;;;5116934;28;20024;-57
2023/07/31 03:05:40;;;;;;;20.35;10.05;;;18.00;99.90;;;;;;5117015;28;20054;-57
2023/07/31 03:08:06;;;;;;;16.52;9.95;;;17.90;99.90;;;;;;5098618;28;20034;-57
2023/07/31 03:10:32;;;;;;;16.67;9.35;;;17.90;99.90;;;;;;5116822;28;20090;-57
2023/07/31 03:12:58;;;;;;;16.95;9.68;;;17.80;99.90;;;;;;5116718;28;20505;-56
2023/07/31 03:15:24;;;;;;;12.45;8.82;;;17.80;99.90;;;;;;5116882;28;20055;-57
2023/07/31 03:17:50;;;;;;;12.80;8.45;;;17.80;99.90;;;;;;5116669;28;20069;-57
2023/07/31 03:20:16;;;;;;;14.60;8.95;;;17.90;99.90;;;;;;5098459;28;20419;-57
2023/07/31 03:22:41;;;;;;;16.75;9.55;;;17.70;99.90;;;;;;5132753;27;20034;-57
2023/07/31 03:25:09;;;;;;;15.25;9.27;;;17.60;99.90;;;;;;5137111;27;20061;-57
2023/07/31 03:27:35;;;;;;;17.85;9.25;;;17.60;99.90;;;;;;5118818;27;20125;-57
2023/07/31 03:30:03;;;;;;;18.58;10.48;;;17.50;99.90;;;;;;5136963;27;20486;-57
2023/07/31 03:32:29;;;;;;;16.60;10.77;;;17.50;99.90;;;;;;5136716;27;20156;-57
2023/07/31 03:34:55;;;;;;;21.83;11.07;;;17.50;99.90;;;;;;5118965;27;20039;-57
2023/07/31 03:37:21;;;;;;;18.40;10.45;;;17.50;99.90;;;;;;5118595;27;20031;-57
2023/07/31 03:39:47;;;;;;;20.05;10.48;;;17.60;99.90;;;;;;5136874;27;20056;-57
2023/07/31 03:42:13;;;;;;;14.60;10.35;;;17.60;99.90;;;;;;5136872;27;20038;-57
2023/07/31 03:44:39;;;;;;;16.65;11.35;;;17.50;99.90;;;;;;5136607;27;20038;-57
2023/07/31 03:47:05;;;;;;;18.08;11.60;;;17.50;99.90;;;;;;5136724;27;20110;-57
2023/07/31 03:49:31;;;;;;;15.38;11.63;;;17.50;99.90;;;;;;5117548;27;20116;-57
2023/07/31 03:51:57;;;;;;;19.08;11.05;;;17.60;99.90;;;;;;5136615;27;20050;-57
2023/07/31 03:54:22;;;;;;;17.75;11.52;;;17.60;99.90;;;;;;5136610;27;20421;-57
2023/07/31 03:56:49;;;;;;;20.35;11.95;;;17.60;99.90;;;;;;5136605;27;20384;-57
2023/07/31 03:59:14;;;;;;;18.33;11.68;;;17.60;99.90;;;;;;5136411;27;20076;-57
2023/07/31 04:01:40;;;;;;;18.25;12.55;;;17.60;99.90;;;;;;5136549;27;20027;-57
2023/07/31 04:04:06;;;;;;;19.33;12.07;;;17.70;99.90;;;;;;5136279;27;20055;-57
2023/07/31 04:06:32;;;;;;;18.65;11.68;;;17.80;99.90;;;;;;5136660;27;20456;-57
2023/07/31 04:08:58;;;;;;;21.88;12.90;;;17.80;99.90;;;;;;5136378;27;20015;-57
2023/07/31 04:11:24;;;;;;;23.60;13.57;;;17.90;99.90;;;;;;5136393;27;20027;-57
2023/07/31 04:13:49;;;;;;;17.58;12.02;;;17.90;99.90;;;;;;5136217;27;20019;-57
2023/07/31 04:16:15;;;;;;;21.92;12.27;;;18.00;99.90;;;;;;5136338;27;20545;-57
2023/07/31 04:18:41;;;;;;;18.63;11.75;;;18.00;99.90;;;;;;5136220;27;20048;-57
2023/07/31 04:21:07;;;;;;;24.42;13.32;;;18.10;99.90;;;;;;5133172;27;20037;-57
2023/07/31 04:23:33;;;;;;;16.65;12.35;;;18.10;99.90;;;;;;5115547;28;20035;-57
2023/07/31 04:25:59;;;;;;;22.67;12.55;;;18.20;99.90;;;;;;5115580;28;20076;-57
2023/07/31 04:28:25;;;;;;;26.33;14.05;;;18.20;99.90;;;;;;5115385;28;20053;-57
2023/07/31 04:30:52;;;;;;;25.05;14.50;;;18.30;99.90;;;;;;5115462;28;20106;-57
2023/07/31 04:33:19;;;;;;;33.92;17.77;;;18.40;99.90;;;;;;5115348;28;20027;-57
2023/07/31 04:35:52;;;;;;;38.65;18.83;;;18.50;99.90;;;;;;5115200;28;20039;-57
2023/07/31 04:38:22;;;;;;;44.10;20.40;;;18.70;99.90;;;;;;5115267;28;20039;-57
2023/07/31 04:40:48;;;;;;;42.58;18.88;;;18.80;99.90;;;;;;5115257;28;20055;-57
2023/07/31 04:43:14;;;;;;;47.95;19.17;;;18.90;99.90;;;;;;5114935;28;20024;-57
2023/07/31 04:45:42;;;;;;;44.58;21.48;;;18.90;99.90;;;;;;5115075;28;20027;-57
2023/07/31 04:48:08;;;;;;;48.25;20.98;;;19.00;99.90;;;;;;5115202;28;20024;-57
2023/07/31 04:50:34;;;;;;;44.22;21.13;;;19.10;99.90;;;;;;5115056;28;20069;-57
2023/07/31 04:53:00;;;;;;;43.22;21.38;;;19.10;99.90;;;;;;5114971;28;20024;-57
2023/07/31 04:55:26;;;;;;;59.28;24.27;;;19.10;99.90;;;;;;5114976;28;20032;-57
2023/07/31 04:57:52;;;;;;;71.82;27.23;;;19.00;99.90;;;;;;5114826;28;20106;-57
2023/07/31 05:00:17;;;;;;;87.80;27.05;;;19.10;99.90;;;;;;5114853;28;20081;-57
2023/07/31 05:02:43;;;;;;;82.70;27.60;;;19.20;99.90;;;;;;5114913;28;20084;-57
2023/07/31 05:05:09;;;;;;;81.10;27.05;;;19.20;99.90;;;;;;5114933;28;20130;-57
2023/07/31 05:07:35;;;;;;;99.93;29.13;;;19.40;99.90;;;;;;5114873;28;20589;-57
2023/07/31 05:10:01;;;;;;;105.82;29.77;;;19.50;99.90;;;;;;5114713;28;20365;-57
2023/07/31 05:12:27;;;;;;;99.53;31.25;;;19.50;99.90;;;;;;5114661;28;20027;-57
2023/07/31 05:14:53;;;;;;;102.65;32.75;;;19.60;99.90;;;;;;5115219;28;20039;-57
2023/07/31 05:17:18;;;;;;;96.53;32.58;;;19.60;99.90;;;;;;5114593;28;20183;-57
2023/07/31 05:19:44;;;;;;;99.28;31.77;;;19.70;99.90;;;;;;5114694;28;20106;-57
2023/07/31 05:22:10;;;;;;;85.65;30.15;;;19.70;99.90;;;;;;5111770;28;20472;-57
2023/07/31 05:24:36;;;;;;;109.05;32.85;;;19.80;99.90;;;;;;5114973;28;20066;-57
2023/07/31 05:27:02;;;;;;;102.35;30.55;;;19.80;99.90;;;;;;5115414;28;20051;-57
2023/07/31 05:29:28;;;;;;;101.80;30.17;;;19.70;99.90;;;;;;5115373;28;20358;-57
2023/07/31 05:31:54;;;;;;;107.90;30.67;;;19.50;99.90;;;;;;5114527;28;20024;-57
2023/07/31 05:34:25;;;;;;;109.18;33.25;;;19.70;99.90;;;;;;5114013;28;20140;-57
2023/07/31 05:36:51;;;;;;;115.78;33.22;;;19.70;99.90;;;;;;5114529;28;20066;-57
2023/07/31 05:39:19;;;;;;;117.25;33.60;;;19.80;99.90;;;;;;5114157;28;20031;-57
2023/07/31 05:41:45;;;;;;;118.22;36.72;;;19.90;99.90;;;;;;5114676;28;20397;-57
2023/07/31 05:44:11;;;;;;;124.45;42.20;;;20.00;99.90;;;;;;5114331;28;20108;-57
2023/07/31 05:46:37;;;;;;;131.20;43.55;;;19.80;99.90;;;;;;5114010;28;20039;-57
2023/07/31 05:49:03;;;;;;;152.98;49.17;;;19.80;99.90;;;;;;5114197;28;20027;-57
2023/07/31 05:51:29;;;;;;;154.23;50.95;;;20.00;99.90;;;;;;5114357;28;20064;-57
2023/07/31 05:53:55;;;;;;;129.45;46.58;;;20.20;99.90;;;;;;5114159;28;20016;-57
2023/07/31 05:56:20;;;;;;;82.70;31.40;;;20.30;99.90;;;;;;5114061;28;20039;-57
2023/07/31 05:58:47;;;;;;;52.28;22.92;;;20.30;99.90;;;;;;5112756;28;20342;-57
2023/07/31 06:01:13;;;;;;;58.30;24.90;;;20.40;99.90;;;;;;5113801;28;20027;-57
2023/07/31 06:03:39;;;;;;;82.07;30.38;;;20.40;99.90;;;;;;5113695;28;20024;-58
2023/07/31 06:06:05;;;;;;;95.13;34.47;;;20.40;99.90;;;;;;5114028;28;20357;-57
2023/07/31 06:08:31;;;;;;;80.22;30.98;;;20.50;99.90;;;;;;5113623;28;20039;-57
2023/07/31 06:10:57;;;;;;;48.80;22.98;;;20.60;99.90;;;;;;5114071;28;20035;-58
2023/07/31 06:13:22;;;;;;;28.98;15.32;;;20.40;99.90;;;;;;5117429;28;20423;-57
2023/07/31 06:15:48;;;;;;;28.25;14.35;;;20.50;99.90;;;;;;5117795;28;20088;-57
2023/07/31 06:18:14;;;;;;;31.10;14.25;;;20.60;99.90;;;;;;5118104;28;20372;-57
2023/07/31 06:20:41;;;;;;;37.88;15.13;;;20.80;99.90;;;;;;5117978;28;20373;-57
2023/07/31 06:23:07;;;;;;;16.20;11.02;;;20.90;99.90;;;;;;5117264;28;20035;-56
2023/07/31 06:25:33;;;;;;;19.90;11.57;;;21.00;99.90;;;;;;5117596;28;20156;-57
2023/07/31 06:27:59;;;;;;;23.17;12.05;;;20.80;99.90;;;;;;5117506;28;20015;-57
2023/07/31 06:30:24;;;;;;;27.38;13.38;;;20.80;99.90;;;;;;5117553;28;20125;-57
2023/07/31 06:32:50;;;;;;;31.45;15.57;;;21.00;99.90;;;;;;5117694;28;20027;-57
2023/07/31 06:35:16;;;;;;;47.00;20.13;;;21.00;99.90;;;;;;5117437;28;20035;-57
2023/07/31 06:37:44;;;;;;;38.33;19.20;;;20.90;99.90;;;;;;5117219;28;20032;-57
2023/07/31 06:40:10;;;;;;;44.03;19.33;;;21.20;99.90;;;;;;5118196;28;20031;-57
2023/07/31 06:42:36;;;;;;;43.10;20.77;;;21.80;99.90;;;;;;5117956;28;20155;-57
2023/07/31 06:45:02;;;;;;;45.30;20.10;;;22.20;99.90;;;;;;5117440;28;20556;-57
2023/07/31 06:47:28;;;;;;;33.20;16.02;;;22.60;99.90;;;;;;5117942;28;20034;-57
2023/07/31 06:49:55;;;;;;;25.77;13.75;;;22.80;99.90;;;;;;5117885;28;20024;-57
2023/07/31 06:52:21;;;;;;;29.23;14.50;;;23.10;99.90;;;;;;5117922;28;20023;-57
2023/07/31 06:55:01;;;;;;;18.42;9.50;;;23.10;99.90;;;;;;5117888;28;20545;-57
2023/07/31 06:57:27;;;;;;;21.92;10.18;;;23.20;99.90;;;;;;5117717;28;20038;-57
2023/07/31 06:59:53;;;;;;;15.50;9.23;;;23.10;99.90;;;;;;5117019;28;20032;-57
2023/07/31 07:02:19;;;;;;;17.85;10.27;;;23.20;99.90;;;;;;5116996;28;20109;-57
2023/07/31 07:04:45;;;;;;;21.60;11.75;;;23.20;99.90;;;;;;5117193;28;20116;-57
2023/07/31 07:07:11;;;;;;;16.40;8.40;;;23.30;99.90;;;;;;5117458;28;20081;-57
2023/07/31 07:09:37;;;;;;;17.17;8.40;;;23.40;99.90;;;;;;5117568;28;20048;-57
2023/07/31 07:12:03;;;;;;;15.52;8.23;;;23.50;99.90;;;;;;5117270;28;20032;-57
2023/07/31 07:14:28;;;;;;;18.25;9.63;;;23.60;99.90;;;;;;5116595;28;20055;-57
2023/07/31 07:16:54;;;;;;;17.52;9.77;;;23.70;99.90;;;;;;5116767;28;20070;-57
2023/07/31 07:19:20;;;;;;;16.70;8.30;;;23.70;99.90;;;;;;5116555;28;20028;-57
2023/07/31 07:21:46;;;;;;;15.23;8.40;;;23.70;99.90;;;;;;5124848;27;20034;-57
2023/07/31 07:24:17;;;;;;;14.25;8.52;;;23.90;99.90;;;;;;5127523;27;20115;-57
2023/07/31 07:26:43;;;;;;;11.00;6.70;;;24.10;99.90;;;;;;5116334;28;20047;-57
2023/07/31 07:29:10;;;;;;;14.38;6.97;;;24.40;99.90;;;;;;5115962;28;20054;-57
2023/07/31 07:31:38;;;;;;;12.68;6.65;;;24.60;99.90;;;;;;5116353;28;20020;-57
2023/07/31 07:34:04;;;;;;;14.90;7.43;;;24.70;99.90;;;;;;5116132;28;20061;-57
2023/07/31 07:36:32;;;;;;;22.85;9.68;;;24.70;99.90;;;;;;5115919;28;20440;-57
2023/07/31 07:38:58;;;;;;;17.30;9.80;;;24.60;99.90;;;;;;5116042;28;20019;-57
2023/07/31 07:41:24;;;;;;;27.98;12.65;;;24.60;99.90;;;;;;5116313;28;20034;-57
2023/07/31 07:43:51;;;;;;;24.50;12.38;;;24.50;99.90;;;;;;5115616;28;20129;-57
2023/07/31 07:46:17;;;;;;;54.95;19.48;;;24.60;99.90;;;;;;5116168;28;20024;-57
2023/07/31 07:48:42;;;;;;;71.95;25.77;;;24.40;99.90;;;;;;5116029;28;20019;-57
2023/07/31 07:51:08;;;;;;;53.47;18.38;;;24.70;99.90;;;;;;5115891;28;20098;-57
2023/07/31 07:53:34;;;;;;;37.50;13.45;;;25.20;99.90;;;;;;5115830;28;20036;-57
2023/07/31 07:56:00;;;;;;;38.85;13.90;;;25.40;99.90;;;;;;5115573;28;20054;-57
2023/07/31 07:58:26;;;;;;;62.70;21.05;;;25.70;99.90;;;;;;5115788;28;20495;-57
2023/07/31 08:00:52;;;;;;;59.40;19.65;;;26.00;99.90;;;;;;5115758;28;20031;-57
2023/07/31 08:03:21;;;;;;;64.95;22.35;;;26.10;99.90;;;;;;5115615;28;20259;-56
2023/07/31 08:05:48;;;;;;;52.95;18.42;;;26.00;99.70;;;;;;5115419;28;20511;-57
2023/07/31 08:08:16;;;;;;;65.78;21.95;;;26.40;99.30;;;;;;5115480;28;20015;-57
2023/07/31 08:10:43;;;;;;;60.45;23.50;;;26.90;96.40;;;;;;5113459;28;20068;-57
2023/07/31 08:13:12;;;;;;;43.17;15.30;;;27.20;95.50;;;;;;5115532;28;20023;-57
2023/07/31 08:15:41;;;;;;;59.35;21.58;;;27.60;93.70;;;;;;5115465;28;20472;-56
2023/07/31 08:18:07;;;;;;;60.13;24.10;;;28.00;92.10;;;;;;5115569;28;20023;-57
2023/07/31 08:20:33;;;;;;;62.88;23.00;;;28.10;92.20;;;;;;5115103;28;20069;-57
2023/07/31 08:22:58;;;;;;;42.17;15.38;;;28.50;91.50;;;;;;5133945;27;20030;-57
2023/07/31 08:25:24;;;;;;;15.20;6.68;;;28.60;89.10;;;;;;5135891;27;20023;-56
2023/07/31 08:27:52;;;;;;;6.70;3.90;;;28.80;81.40;;;;;;5135979;27;20034;-57
2023/07/31 08:30:19;;;;;;;7.75;3.25;;;28.80;78.20;;;;;;5135439;27;20026;-56
2023/07/31 08:32:45;;;;;;;6.03;3.17;;;29.30;76.40;;;;;;5135751;27;20484;-57
2023/07/31 08:35:11;;;;;;;6.90;3.33;;;29.40;72.20;;;;;;5135413;27;20092;-57
2023/07/31 08:37:37;;;;;;;7.30;3.38;;;29.60;67.90;;;;;;5132168;27;20068;-56
2023/07/31 08:40:04;;;;;;;8.82;2.90;;;29.10;63.70;;;;;;5115477;28;20036;-56
2023/07/31 08:42:31;;;;;;;7.53;2.90;;;28.70;62.90;;;;;;5114850;28;20031;-56
2023/07/31 08:44:59;;;;;;;6.13;3.10;;;29.00;65.60;;;;;;5114388;28;20043;-57
2023/07/31 08:47:26;;;;;;;4.65;2.30;;;28.90;61.20;;;;;;5115198;28;20081;-56
2023/07/31 08:49:53;;;;;;;3.83;1.88;;;29.20;64.00;;;;;;5114963;28;20102;-56
2023/07/31 08:52:19;;;;;;;2.80;1.50;;;29.40;55.70;;;;;;5114621;28;20028;-56
2023/07/31 08:54:51;;;;;;;8.15;6.45;;;29.30;54.50;;;;;;5115338;28;20039;-56
2023/07/31 08:57:17;;;;;;;5.68;2.70;;;29.30;56.00;;;;;;5114685;28;20036;-56
2023/07/31 08:59:43;;;;;;;5.53;3.03;;;29.20;53.50;;;;;;5114723;28;20040;-56
2023/07/31 09:02:11;;;;;;;5.72;3.88;;;28.80;54.90;;;;;;5114944;28;20051;-56
2023/07/31 09:04:37;;;;;;;4.82;2.88;;;29.50;55.60;;;;;;5114743;28;20488;-56
2023/07/31 09:07:04;;;;;;;5.20;2.45;;;30.40;57.00;;;;;;5114569;28;20465;-56
2023/07/31 09:09:31;;;;;;;5.45;2.40;;;28.90;53.00;;;;;;5114546;28;20027;-56
2023/07/31 09:11:58;;;;;;;3.92;1.92;;;29.00;56.30;;;;;;5114658;28;20020;-56
2023/07/31 09:14:27;;;;;;;2.70;2.03;;;30.30;58.90;;;;;;5114778;28;20032;-56
2023/07/31 09:16:59;;;;;;;4.32;2.20;;;30.50;54.90;;;;;;5114763;28;20028;-56
2023/07/31 09:19:33;;;;;;;7.88;2.10;;;30.90;52.50;;;;;;5113869;28;20043;-57
2023/07/31 09:22:00;;;;;;;5.20;2.10;;;30.50;53.00;;;;;;5124559;28;20031;-56
2023/07/31 09:24:28;;;;;;;2.95;2.00;;;30.80;55.10;;;;;;5134924;28;20384;-57
2023/07/31 09:26:55;;;;;;;3.95;2.53;;;30.90;54.30;;;;;;5135241;28;20030;-57
2023/07/31 09:29:22;;;;;;;4.60;2.45;;;30.50;50.90;;;;;;5135080;28;20090;-57
2023/07/31 09:31:48;;;;;;;4.55;1.73;;;29.70;51.00;;;;;;5134733;28;20076;-57
2023/07/31 09:34:14;;;;;;;4.15;2.00;;;29.50;53.30;;;;;;5134976;28;20035;-57
2023/07/31 09:36:48;;;;;;;6.53;4.68;;;29.70;52.30;;;;;;5134795;28;20577;-57
2023/07/31 09:39:19;;;;;;;2.33;1.73;;;30.10;50.80;;;;;;5135003;28;20480;-54
2023/07/31 09:41:53;;;;;;;6.85;2.15;;;29.90;47.00;;;;;;5134889;28;20027;-54
2023/07/31 09:44:19;;;;;;;2.83;1.58;;;29.70;52.40;;;;;;5134762;28;20023;-54
2023/07/31 09:46:45;;;;;;;3.70;1.98;;;30.40;47.80;;;;;;5135092;27;20023;-54
2023/07/31 09:49:12;;;;;;;3.58;2.05;;;29.90;46.80;;;;;;5138857;27;20098;-54
2023/07/31 09:51:40;;;;;;;3.28;1.88;;;29.70;48.70;;;;;;5119978;27;20023;-54
2023/07/31 09:54:13;;;;;;;5.93;1.88;;;29.30;52.70;;;;;;5138780;27;20027;-54
2023/07/31 09:56:46;;;;;;;4.05;2.17;;;29.20;52.40;;;;;;5138391;27;20030;-57
2023/07/31 09:59:24;;;;;;;7.28;3.80;;;28.40;51.20;;;;;;5138334;27;20483;-57
2023/07/31 10:01:54;;;;;;;4.30;1.93;;;28.20;51.20;;;;;;5138662;27;20034;-57
2023/07/31 10:04:29;;;;;;;5.28;2.50;;;28.00;59.60;;;;;;5138266;27;20039;-57
2023/07/31 10:06:57;;;;;;;3.80;1.75;;;28.60;51.80;;;;;;5138787;27;20471;-56
2023/07/31 10:09:25;;;;;;;3.63;1.90;;;28.80;51.20;;;;;;5139580;27;20019;-56
2023/07/31 10:12:05;;;;;;;3.67;1.77;;;28.80;50.20;;;;;;5118141;27;20496;-56
2023/07/31 10:14:31;;;;;;;3.40;1.80;;;28.80;52.60;;;;;;5117677;28;20035;-56
2023/07/31 10:16:58;;;;;;;4.85;1.55;;;29.20;46.20;;;;;;5117707;28;20384;-56
2023/07/31 10:19:27;;;;;;;6.72;2.30;;;29.70;44.80;;;;;;5117854;28;20423;-56
2023/07/31 10:21:53;;;;;;;6.18;2.20;;;30.00;46.00;;;;;;5126628;27;20088;-56
2023/07/31 10:24:20;;;;;;;11.82;2.67;;;29.90;47.60;;;;;;5137911;27;20035;-56
2023/07/31 10:26:48;;;;;;;10.80;3.70;;;30.10;44.90;;;;;;5138206;27;20471;-56
2023/07/31 10:29:20;;;;;;;3.42;2.50;;;30.50;47.20;;;;;;5138029;27;20027;-56
2023/07/31 10:31:49;;;;;;;3.25;1.77;;;30.90;41.80;;;;;;5137771;27;20027;-56
2023/07/31 10:34:16;;;;;;;3.80;1.92;;;30.90;38.70;;;;;;5137722;27;20046;-56
2023/07/31 10:36:42;;;;;;;7.10;2.92;;;31.10;45.50;;;;;;5119756;27;20052;-56
2023/07/31 10:39:35;;;;;;;4.35;2.33;;;31.60;46.10;;;;;;5137731;27;20024;-56
2023/07/31 10:42:13;;;;;;;3.20;1.60;;;32.20;41.20;;;;;;5137499;27;20480;-56
2023/07/31 10:44:44;;;;;;;6.18;2.00;;;32.60;42.50;;;;;;5137898;27;20027;-56
2023/07/31 10:47:16;;;;;;;2.58;1.70;;;32.30;33.30;;;;;;5137680;27;20023;-56
2023/07/31 10:49:46;;;;;;;5.38;2.10;;;32.70;37.10;;;;;;5137425;27;20465;-56
2023/07/31 10:52:26;;;;;;;3.73;1.87;;;31.70;31.70;;;;;;5136279;27;20019;-57
2023/07/31 10:55:15;;;;;;;3.35;2.00;;;31.50;42.30;;;;;;5137674;27;20028;-57
2023/07/31 10:57:45;;;;;;;3.50;1.58;;;32.00;37.30;;;;;;5137258;27;20384;-57
2023/07/31 11:00:30;;;;;;;7.45;2.65;;;32.20;34.10;;;;;;5137507;27;20029;-57
2023/07/31 11:02:58;;;;;;;12.40;3.08;;;32.10;33.40;;;;;;5137504;27;20027;-57
2023/07/31 11:05:55;;;;;;;9.23;2.50;;;32.60;32.40;;;;;;5136953;27;20047;-58
2023/07/31 11:08:26;;;;;;;7.75;2.65;;;32.40;30.80;;;;;;5096071;28;20024;-57
2023/07/31 11:11:01;;;;;;;10.70;1.88;;;32.30;36.10;;;;;;5107983;28;20028;-59
2023/07/31 11:13:28;;;;;;;4.07;1.60;;;32.40;38.70;;;;;;5116689;28;20102;-58
2023/07/31 11:15:54;;;;;;;6.35;2.50;;;32.80;35.10;;;;;;5116841;28;20031;-58
2023/07/31 11:18:20;;;;;;;3.17;2.15;;;32.90;36.00;;;;;;5116420;28;20112;-57
2023/07/31 11:20:46;;;;;;;6.25;2.83;;;33.20;38.20;;;;;;5116440;28;20107;-57
2023/07/31 11:23:15;;;;;;;5.93;2.28;;;33.30;29.20;;;;;;5116317;28;20055;-57
2023/07/31 11:25:41;;;;;;;3.22;1.60;;;33.00;31.10;;;;;;5116498;28;20020;-57
2023/07/31 11:28:17;;;;;;;3.90;1.67;;;32.50;28.70;;;;;;5116449;28;20055;-57
2023/07/31 11:30:44;;;;;;;3.15;2.00;;;30.90;30.30;;;;;;5116005;28;20045;-57
2023/07/31 11:33:12;;;;;;;2.20;1.70;;;31.30;30.00;;;;;;5097943;28;20027;-57
2023/07/31 11:35:49;;;;;;;5.43;2.03;;;31.30;32.00;;;;;;5116949;28;20031;-57
2023/07/31 11:38:32;;;;;;;3.97;2.33;;;32.00;32.30;;;;;;5116331;28;20035;-57
2023/07/31 11:41:02;;;;;;;3.17;1.98;;;32.40;28.50;;;;;;5116229;28;20035;-57
2023/07/31 11:43:32;;;;;;;8.18;2.70;;;31.60;28.30;;;;;;5115835;28;20442;-57
2023/07/31 11:46:04;;;;;;;5.38;2.30;;;31.70;28.60;;;;;;5115789;28;20028;-57
2023/07/31 11:48:36;;;;;;;3.05;1.98;;;31.90;33.10;;;;;;5115964;28;20088;-57
2023/07/31 11:51:03;;;;;;;2.70;1.70;;;31.60;28.40;;;;;;5116190;28;20032;-57
2023/07/31 11:53:32;;;;;;;3.83;2.00;;;32.40;31.60;;;;;;5115797;28;20373;-57
2023/07/31 11:56:04;;;;;;;3.60;1.88;;;32.50;28.40;;;;;;5115654;28;20027;-58
2023/07/31 11:58:31;;;;;;;3.05;1.90;;;31.80;27.10;;;;;;5115722;28;20034;-57
2023/07/31 12:00:59;;;;;;;7.10;3.03;;;31.90;31.90;;;;;;5116323;28;20038;-57
2023/07/31 12:03:25;;;;;;;2.53;1.80;;;31.80;31.50;;;;;;5115720;28;20042;-57
2023/07/31 12:05:53;;;;;;;7.00;2.50;;;32.20;34.90;;;;;;5115685;28;20071;-58
2023/07/31 12:08:21;;;;;;;5.30;2.50;;;32.60;33.80;;;;;;5115097;28;20032;-57
2023/07/31 12:10:50;;;;;;;5.00;2.13;;;32.30;31.90;;;;;;5114439;28;20031;-57
2023/07/31 12:13:26;;;;;;;4.72;2.13;;;32.00;32.10;;;;;;5115411;28;20031;-57
2023/07/31 12:15:57;;;;;;;2.85;2.25;;;32.30;34.20;;;;;;5115981;28;20043;-58
2023/07/31 12:18:25;;;;;;;4.82;2.10;;;32.60;33.20;;;;;;5097194;28;20031;-57
2023/07/31 12:20:56;;;;;;;3.65;2.10;;;32.90;30.80;;;;;;5115972;27;20032;-57
2023/07/31 12:23:29;;;;;;;7.07;2.70;;;33.10;32.10;;;;;;5135929;27;20027;-58
2023/07/31 12:26:15;;;;;;;6.15;2.35;;;33.40;30.80;;;;;;5135699;27;20030;-58
2023/07/31 12:28:45;;;;;;;6.07;2.88;;;33.60;32.90;;;;;;5135997;27;20034;-58
2023/07/31 12:31:12;;;;;;;5.78;2.35;;;34.00;30.90;;;;;;5135781;27;20070;-58
2023/07/31 12:33:40;;;;;;;3.13;1.70;;;34.10;33.30;;;;;;5135302;27;20026;-58
2023/07/31 12:36:17;;;;;;;3.88;2.40;;;34.40;30.70;;;;;;5135730;27;20031;-58